Time;durP1;ratioP1;P1;durP2;ratioP2;P2;SDS_P1;SDS_P2;PMS_P1;PMS_P2;Temp;Humidity;BMP_temperature;BMP_pressure;BME280_temperature;BME280_humidity;BME280_pressure;Samples;Min_cycle;Max_cycle;Signal;HPM_P1;HPM_P2
2021/09/10 00:00:04;;;;;;;7.78;6.95;;;;;;;18.59;79.33;98511.66;4967370;28;102926;-69
2021/09/10 00:02:38;;;;;;;7.30;6.60;;;;;;;18.52;79.52;98515.03;4989229;28;103199;-68
2021/09/10 00:05:08;;;;;;;8.77;8.00;;;;;;;18.49;80.02;98509.16;4992716;28;103200;-69
2021/09/10 00:07:36;;;;;;;8.32;7.63;;;;;;;18.45;80.51;98505.94;4992009;28;102981;-69
2021/09/10 00:10:07;;;;;;;10.07;8.98;;;;;;;18.40;80.26;98510.09;4989677;28;103552;-69
2021/09/10 00:12:36;;;;;;;9.68;8.88;;;;;;;18.38;80.29;98517.47;4976383;28;102751;-69
2021/09/10 00:15:05;;;;;;;9.88;8.90;;;;;;;18.30;80.52;98512.91;4989349;28;103349;-68
2021/09/10 00:17:33;;;;;;;10.73;9.63;;;;;;;18.06;82.04;98512.00;4992677;28;102626;-68
2021/09/10 00:20:01;;;;;;;10.15;9.13;;;;;;;18.03;82.20;98517.69;4995245;28;102712;-68
2021/09/10 00:22:29;;;;;;;8.13;7.32;;;;;;;18.18;81.75;98516.06;4989735;28;103086;-69
2021/09/10 00:24:57;;;;;;;8.77;8.00;;;;;;;18.23;81.84;98517.25;4992702;28;103211;-69
2021/09/10 00:27:27;;;;;;;13.10;8.90;;;;;;;18.30;81.51;98512.91;4990345;28;102662;-69
2021/09/10 00:29:55;;;;;;;8.02;7.25;;;;;;;18.31;81.40;98508.41;4974037;28;103682;-68
2021/09/10 00:32:23;;;;;;;9.57;8.63;;;;;;;18.18;82.02;98516.06;4993254;28;103283;-69
2021/09/10 00:34:51;;;;;;;10.93;9.82;;;;;;;17.98;83.06;98515.50;4997732;28;103263;-69
2021/09/10 00:37:19;;;;;;;10.80;9.73;;;;;;;17.80;83.93;98512.91;4988634;28;102754;-68
2021/09/10 00:39:47;;;;;;;13.45;10.30;;;;;;;17.68;84.54;98513.38;4984059;28;102936;-63
2021/09/10 00:42:15;;;;;;;12.15;10.98;;;;;;;17.47;85.36;98516.41;4987730;28;103700;-64
2021/09/10 00:44:45;;;;;;;11.60;10.32;;;;;;;17.51;85.68;98515.09;4989908;28;103279;-64
2021/09/10 00:47:14;;;;;;;13.15;11.40;;;;;;;17.42;85.99;98518.72;4987990;28;102939;-64
2021/09/10 00:49:42;;;;;;;12.55;10.52;;;;;;;17.36;86.35;98524.69;4972838;28;103863;-63
2021/09/10 00:52:11;;;;;;;11.63;10.50;;;;;;;17.35;87.05;98517.66;4990761;28;104842;-63
2021/09/10 00:54:39;;;;;;;13.13;11.82;;;;;;;17.30;86.88;98517.28;4971623;28;104316;-64
2021/09/10 00:57:07;;;;;;;13.25;11.73;;;;;;;17.19;87.63;98512.22;4986851;28;102641;-64
2021/09/10 00:59:35;;;;;;;14.05;12.18;;;;;;;17.25;87.78;98517.78;4984789;28;103911;-64
2021/09/10 01:02:05;;;;;;;12.27;11.23;;;;;;;17.45;86.80;98514.88;4985813;28;103293;-63
2021/09/10 01:04:34;;;;;;;14.52;11.80;;;;;;;17.54;86.50;98512.16;4987537;28;103207;-63
2021/09/10 01:07:03;;;;;;;13.93;11.85;;;;;;;17.42;87.42;98516.03;4988784;28;102791;-64
2021/09/10 01:09:35;;;;;;;12.18;10.93;;;;;;;17.46;87.73;98513.91;4986388;28;104187;-63
2021/09/10 01:12:03;;;;;;;11.23;10.23;;;;;;;17.49;87.68;98519.75;4990111;28;103223;-64
2021/09/10 01:14:32;;;;;;;12.52;11.32;;;;;;;17.48;87.99;98520.75;4986390;28;103232;-62
2021/09/10 01:17:01;;;;;;;12.88;11.70;;;;;;;17.39;88.65;98509.19;4991518;28;103022;-62
2021/09/10 01:19:32;;;;;;;14.32;12.80;;;;;;;17.34;89.03;98514.16;4988180;28;102646;-63
2021/09/10 01:22:04;;;;;;;12.27;11.07;;;;;;;17.60;87.65;98514.16;4989062;28;103696;-63
2021/09/10 01:24:37;;;;;;;13.88;11.00;;;;;;;17.73;87.05;98511.91;4964076;28;103326;-64
2021/09/10 01:27:07;;;;;;;11.60;10.50;;;;;;;17.79;86.59;98513.09;4973011;28;102861;-64
2021/09/10 01:29:39;;;;;;;14.82;11.85;;;;;;;17.65;87.71;98514.53;4986277;28;102801;-62
2021/09/10 01:32:10;;;;;;;12.98;11.68;;;;;;;17.45;89.24;98517.56;4989229;28;103029;-64
2021/09/10 01:34:39;;;;;;;16.50;12.57;;;;;;;17.42;89.53;98513.38;4983640;28;103207;-63
2021/09/10 01:37:07;;;;;;;13.50;12.05;;;;;;;17.52;89.40;98511.41;4991741;28;103924;-62
2021/09/10 01:39:36;;;;;;;12.90;11.60;;;;;;;17.67;88.12;98512.53;4985951;28;104119;-62
2021/09/10 01:42:07;;;;;;;9.57;8.60;;;;;;;17.77;87.58;98518.59;4976510;28;104098;-62
2021/09/10 01:44:35;;;;;;;9.70;8.80;;;;;;;17.90;86.39;98516.31;4988641;28;103195;-62
2021/09/10 01:47:04;;;;;;;8.43;7.65;;;;;;;17.94;85.98;98516.81;4984942;28;102695;-63
2021/09/10 01:49:35;;;;;;;10.10;9.13;;;;;;;17.79;86.56;98511.25;4988490;28;102621;-68
2021/09/10 01:52:05;;;;;;;10.50;9.60;;;;;;;17.68;87.11;98516.06;4993765;28;103279;-68
2021/09/10 01:54:34;;;;;;;10.13;9.18;;;;;;;17.70;87.19;98522.91;4976048;28;103234;-68
2021/09/10 01:57:04;;;;;;;11.52;10.48;;;;;;;17.72;86.93;98515.56;4991744;28;104414;-69
2021/09/10 01:59:35;;;;;;;11.70;10.60;;;;;;;17.65;88.21;98517.22;4988330;28;102921;-68
2021/09/10 02:02:03;;;;;;;17.35;13.98;;;;;;;17.61;88.46;98523.00;4993479;28;103274;-69
2021/09/10 02:04:32;;;;;;;20.52;13.85;;;;;;;17.39;89.93;98519.88;4989031;28;103270;-68
2021/09/10 02:07:01;;;;;;;15.00;13.38;;;;;;;17.40;90.31;98510.84;4991033;28;102671;-68
2021/09/10 02:09:33;;;;;;;13.40;11.50;;;;;;;17.55;89.82;98513.81;4992085;28;102598;-63
2021/09/10 02:12:01;;;;;;;16.05;14.23;;;;;;;17.53;89.64;98507.75;4987756;28;103974;-63
2021/09/10 02:14:31;;;;;;;12.43;11.27;;;;;;;17.65;88.94;98508.34;4986904;28;103251;-63
2021/09/10 02:17:02;;;;;;;11.52;9.30;;;;;;;17.76;88.34;98514.25;4994226;28;102757;-63
2021/09/10 02:19:30;;;;;;;10.98;9.77;;;;;;;17.76;88.28;98516.94;4991492;28;102679;-64
2021/09/10 02:22:00;;;;;;;13.95;12.52;;;;;;;17.64;89.20;98512.84;4989254;28;103412;-64
2021/09/10 02:24:28;;;;;;;14.13;12.68;;;;;;;17.59;89.74;98507.16;4990313;28;103269;-64
2021/09/10 02:26:56;;;;;;;15.60;14.00;;;;;;;17.40;90.85;98510.03;4986527;28;102813;-64
2021/09/10 02:29:24;;;;;;;12.85;11.52;;;;;;;17.46;90.70;98509.38;4992302;28;102643;-64
2021/09/10 02:31:53;;;;;;;12.48;11.18;;;;;;;17.72;88.78;98510.22;4985057;28;103240;-64
2021/09/10 02:34:24;;;;;;;14.38;12.95;;;;;;;17.51;90.57;98511.59;4989316;28;103234;-63
2021/09/10 02:36:52;;;;;;;13.80;12.50;;;;;;;17.41;91.20;98511.69;4989851;28;103143;-64
2021/09/10 02:39:23;;;;;;;12.40;11.20;;;;;;;17.49;90.74;98514.41;4983480;28;103982;-63
2021/09/10 02:41:52;;;;;;;12.43;11.23;;;;;;;17.52;90.53;98519.44;4987565;28;103929;-64
2021/09/10 02:44:20;;;;;;;13.32;11.95;;;;;;;17.45;91.09;98521.06;4975262;28;104268;-64
2021/09/10 02:46:50;;;;;;;15.73;14.32;;;;;;;17.18;92.42;98521.22;4988158;28;103657;-64
2021/09/10 02:49:19;;;;;;;13.40;12.30;;;;;;;17.32;92.12;98523.31;4983747;28;102801;-64
2021/09/10 02:51:47;;;;;;;14.77;12.02;;;;;;;17.46;91.17;98521.91;4978440;28;104219;-63
2021/09/10 02:54:15;;;;;;;13.90;12.60;;;;;;;17.50;91.16;98518.75;4987744;28;103205;-63
2021/09/10 02:56:43;;;;;;;12.48;11.27;;;;;;;17.38;92.20;98522.69;4987895;28;103024;-64
2021/09/10 02:59:11;;;;;;;12.35;11.20;;;;;;;17.36;92.08;98519.34;4993579;28;102942;-68
2021/09/10 03:01:44;;;;;;;15.65;13.63;;;;;;;17.20;93.53;98520.09;4996991;28;103263;-70
2021/09/10 03:04:13;;;;;;;14.13;12.82;;;;;;;17.40;92.27;98520.72;4994608;28;103390;-63
2021/09/10 03:06:43;;;;;;;10.68;9.68;;;;;;;17.51;91.86;98512.44;4994950;28;103044;-68
2021/09/10 03:23:25;;;;;;;9.93;9.02;;;;;;;18.08;88.15;98515.38;5000255;28;102780;-66
2021/09/10 03:25:53;;;;;;;9.10;8.18;;;;;;;18.14;87.72;98509.34;4998636;28;102826;-68
2021/09/10 03:28:21;;;;;;;8.68;7.78;;;;;;;18.19;87.29;98507.06;4996477;28;104212;-67
2021/09/10 03:30:49;;;;;;;8.20;7.50;;;;;;;18.28;86.49;98506.06;4993162;28;102761;-62
2021/09/10 03:33:17;;;;;;;13.93;10.95;;;;;;;18.32;86.10;98502.06;4968261;28;102726;-63
2021/09/10 03:35:45;;;;;;;9.13;8.23;;;;;;;18.38;86.05;98506.75;4989325;28;103616;-63
2021/09/10 03:38:13;;;;;;;13.05;11.85;;;;;;;18.34;86.33;98503.56;4996520;28;103210;-62
2021/09/10 03:40:43;;;;;;;10.40;9.40;;;;;;;18.31;86.39;98500.38;4991107;28;102935;-68
2021/09/10 03:43:11;;;;;;;14.27;12.93;;;;;;;18.22;86.53;98496.00;4996684;28;102843;-68
2021/09/10 03:45:39;;;;;;;11.65;10.48;;;;;;;18.18;87.00;98495.53;4996444;28;103201;-68
2021/09/10 03:48:07;;;;;;;11.05;9.93;;;;;;;18.25;86.38;98487.66;4994024;28;103282;-68
2021/09/10 03:50:35;;;;;;;16.27;13.63;;;;;;;18.03;87.59;98488.28;4980914;28;102697;-63
2021/09/10 03:53:03;;;;;;;13.07;11.80;;;;;;;18.19;86.39;98491.03;4988817;28;103003;-63
2021/09/10 03:55:31;;;;;;;13.07;11.88;;;;;;;18.08;87.24;98492.13;4991674;28;103261;-64
2021/09/10 03:58:01;;;;;;;13.90;12.50;;;;;;;18.04;87.04;98489.97;4998665;28;103209;-69
2021/09/10 04:00:29;;;;;;;11.65;10.50;;;;;;;18.09;86.92;98499.16;4991577;28;102629;-68
2021/09/10 04:02:58;;;;;;;9.00;8.20;;;;;;;18.21;86.10;98494.34;5001492;28;103190;-70
2021/09/10 04:05:28;;;;;;;13.25;11.93;;;;;;;18.11;86.49;98497.16;4994953;28;104124;-69
2021/09/10 04:07:56;;;;;;;13.63;11.20;;;;;;;18.05;87.25;98488.97;4990903;28;104065;-70
2021/09/10 04:10:24;;;;;;;12.07;10.93;;;;;;;18.06;87.14;98496.81;4999039;28;102609;-70
2021/09/10 04:12:54;;;;;;;8.65;7.85;;;;;;;18.19;86.49;98494.50;4991994;28;104121;-70
2021/09/10 04:15:23;;;;;;;8.98;8.18;;;;;;;18.24;85.87;98494.03;4981279;28;103715;-69
2021/09/10 04:17:51;;;;;;;11.13;10.13;;;;;;;18.18;85.89;98492.00;4975369;28;103244;-68
2021/09/10 04:20:20;;;;;;;14.00;11.95;;;;;;;18.07;86.82;98493.16;5001306;28;102698;-69
2021/09/10 04:22:48;;;;;;;13.13;11.82;;;;;;;18.02;86.83;98500.81;4992499;28;102746;-64
2021/09/10 04:25:17;;;;;;;15.43;12.68;;;;;;;17.98;87.16;98498.63;4987068;28;104168;-63
2021/09/10 04:27:45;;;;;;;9.95;8.93;;;;;;;18.08;86.74;98496.66;4986017;28;103229;-64
2021/09/10 04:30:13;;;;;;;11.95;10.57;;;;;;;17.88;88.42;98488.91;4991497;28;102604;-65
2021/09/10 04:32:43;;;;;;;11.30;10.23;;;;;;;17.80;89.19;98491.53;4991229;28;103830;-68
2021/09/10 04:35:12;;;;;;;11.15;10.15;;;;;;;17.72;89.89;98494.19;4987488;28;103280;-68
2021/09/10 04:37:40;;;;;;;12.80;11.70;;;;;;;17.74;89.12;98491.38;4969883;28;103308;-63
2021/09/10 04:40:10;;;;;;;11.05;9.95;;;;;;;17.73;89.78;98501.22;4990336;28;102604;-63
2021/09/10 04:42:39;;;;;;;12.80;11.50;;;;;;;17.62;90.19;98493.47;4991709;28;102702;-63
2021/09/10 04:45:08;;;;;;;12.63;11.43;;;;;;;17.63;89.74;98504.97;4988313;28;104131;-63
2021/09/10 04:47:36;;;;;;;10.98;9.93;;;;;;;17.67;89.71;98507.19;4994159;28;103345;-68
2021/09/10 04:50:07;;;;;;;9.65;8.85;;;;;;;17.72;89.83;98507.53;4988130;28;102605;-63
2021/09/10 04:52:38;;;;;;;8.63;7.93;;;;;;;17.79;88.94;98505.91;4994476;28;103033;-67
2021/09/10 04:55:08;;;;;;;11.65;10.43;;;;;;;17.69;89.63;98507.88;4993828;28;103421;-63
2021/09/10 04:57:36;;;;;;;11.70;10.50;;;;;;;17.81;88.81;98503.91;4989271;28;103212;-63
2021/09/10 05:00:05;;;;;;;8.07;7.38;;;;;;;17.91;87.66;98504.63;4989229;28;102615;-67
2021/09/10 05:02:33;;;;;;;9.65;8.70;;;;;;;17.95;87.33;98510.47;4995751;28;103168;-63
2021/09/10 05:05:02;;;;;;;10.82;9.73;;;;;;;17.98;87.33;98514.66;4990823;28;103117;-63
2021/09/10 05:07:31;;;;;;;8.40;7.70;;;;;;;18.05;87.01;98500.47;4991054;28;103415;-63
2021/09/10 05:09:59;;;;;;;8.93;8.13;;;;;;;18.17;85.92;98509.03;4994476;28;102635;-63
2021/09/10 05:12:27;;;;;;;8.85;8.05;;;;;;;18.20;85.75;98508.72;4991565;28;102760;-63
2021/09/10 05:14:55;;;;;;;11.50;9.73;;;;;;;18.25;85.65;98507.22;4993452;28;103267;-68
2021/09/10 05:17:23;;;;;;;11.00;9.65;;;;;;;18.32;84.94;98513.59;4994757;28;103198;-63
2021/09/10 05:19:51;;;;;;;8.88;8.07;;;;;;;18.36;84.87;98506.06;4990964;28;102673;-64
2021/09/10 05:22:30;;;;;;;8.25;7.43;;;;;;;18.42;84.69;98508.94;4988391;28;104760;-63
2021/09/10 05:25:10;;;;;;;9.85;8.00;;;;;;;18.43;84.09;98509.78;4981160;28;103053;-62
2021/09/10 05:27:39;;;;;;;10.93;9.93;;;;;;;18.40;84.44;98512.78;4992780;28;103382;-62
2021/09/10 05:30:08;;;;;;;10.45;9.50;;;;;;;18.36;85.00;98519.44;4990459;28;102736;-67
2021/09/10 05:32:36;;;;;;;13.40;9.93;;;;;;;18.30;85.83;98520.94;4988491;28;103787;-61
2021/09/10 05:35:05;;;;;;;11.02;9.48;;;;;;;18.46;85.27;98528.16;4994390;28;103889;-62
2021/09/10 05:37:33;;;;;;;11.52;10.38;;;;;;;18.45;84.71;98526.50;4987140;28;103200;-63
2021/09/10 05:40:01;;;;;;;13.00;11.80;;;;;;;18.16;87.06;98529.56;4987172;28;104060;-63
2021/09/10 05:42:30;;;;;;;13.52;11.75;;;;;;;18.32;86.94;98534.16;4978630;28;102752;-62
2021/09/10 05:44:59;;;;;;;13.25;11.93;;;;;;;18.29;86.85;98529.13;4986550;28;103285;-63
2021/09/10 05:47:26;;;;;;;9.63;8.82;;;;;;;18.51;85.96;98531.22;4981341;28;103239;-63
2021/09/10 05:49:55;;;;;;;11.80;10.77;;;;;;;18.60;84.67;98524.88;4992669;28;102569;-63
2021/09/10 05:52:23;;;;;;;11.57;10.40;;;;;;;18.68;84.55;98524.88;4993852;28;102743;-68
2021/09/10 05:54:51;;;;;;;14.23;11.85;;;;;;;18.73;84.35;98533.25;4992790;28;103269;-62
2021/09/10 05:57:19;;;;;;;11.40;10.38;;;;;;;18.72;84.27;98525.41;4995554;28;103224;-67
2021/09/10 05:59:48;;;;;;;16.10;12.50;;;;;;;18.70;84.23;98533.56;4992313;28;102881;-68
2021/09/10 06:02:17;;;;;;;14.10;12.52;;;;;;;18.82;83.46;98528.75;4977830;28;102660;-69
2021/09/10 06:04:45;;;;;;;14.45;11.80;;;;;;;18.96;82.87;98534.28;4993169;28;103366;-68
2021/09/10 06:07:14;;;;;;;9.15;8.32;;;;;;;19.05;82.66;98527.06;4977665;28;103328;-62
2021/09/10 06:09:42;;;;;;;11.43;10.32;;;;;;;19.09;82.47;98529.22;4987836;28;103076;-68
2021/09/10 06:12:10;;;;;;;17.98;12.57;;;;;;;18.95;82.54;98529.06;4993710;28;102834;-69
2021/09/10 06:14:38;;;;;;;11.85;10.00;;;;;;;19.14;81.98;98531.44;4986033;28;103330;-70
2021/09/10 06:17:08;;;;;;;10.43;9.50;;;;;;;19.24;81.69;98541.94;4991032;28;102546;-68
2021/09/10 06:19:36;;;;;;;9.20;8.38;;;;;;;19.33;81.00;98543.63;4990524;28;102625;-69
2021/09/10 06:22:04;;;;;;;8.95;8.15;;;;;;;19.57;80.17;98540.91;4997365;28;102686;-63
2021/09/10 06:24:33;;;;;;;13.15;11.63;;;;;;;19.30;81.36;98542.13;4984711;28;103291;-63
2021/09/10 06:27:01;;;;;;;11.93;10.73;;;;;;;19.31;81.15;98545.63;4978498;28;103201;-64
2021/09/10 06:29:29;;;;;;;10.13;9.13;;;;;;;19.40;80.76;98555.34;4992262;28;102599;-68
2021/09/10 06:31:57;;;;;;;10.43;9.32;;;;;;;19.44;80.88;98548.66;4996168;28;104213;-69
2021/09/10 06:34:27;;;;;;;12.50;11.27;;;;;;;19.60;80.04;98548.59;4995459;28;103677;-69
2021/09/10 06:36:55;;;;;;;11.43;10.00;;;;;;;19.68;80.49;98552.09;4995208;28;103227;-69
2021/09/10 06:39:23;;;;;;;18.67;12.27;;;;;;;19.76;80.05;98553.91;4973176;28;102807;-69
2021/09/10 06:41:51;;;;;;;14.52;11.93;;;;;;;19.64;80.64;98540.06;4998459;28;102904;-70
2021/09/10 06:44:19;;;;;;;10.20;9.25;;;;;;;19.91;79.59;98546.84;4988725;28;103037;-69
2021/09/10 06:46:47;;;;;;;9.00;8.23;;;;;;;19.99;78.77;98551.31;4977538;28;104219;-70
2021/09/10 06:49:15;;;;;;;12.73;9.48;;;;;;;20.23;78.23;98553.91;4990168;28;102722;-70
2021/09/10 06:51:45;;;;;;;10.95;9.00;;;;;;;20.24;78.42;98548.41;4990607;28;102719;-69
2021/09/10 06:54:13;;;;;;;14.60;12.20;;;;;;;20.05;78.43;98554.16;4989408;28;103432;-69
2021/09/10 06:56:41;;;;;;;13.15;11.95;;;;;;;20.13;78.38;98555.97;4987932;28;103245;-69
2021/09/10 06:59:09;;;;;;;12.10;10.73;;;;;;;20.33;77.94;98557.25;4993046;28;102646;-69
2021/09/10 07:01:37;;;;;;;15.82;12.32;;;;;;;20.48;77.12;98558.19;5000471;28;102726;-64
2021/09/10 07:04:06;;;;;;;11.10;9.60;;;;;;;20.69;77.16;98552.16;4989017;28;104027;-64
2021/09/10 07:06:37;;;;;;;14.13;10.98;;;;;;;20.81;76.46;98554.25;4989199;28;103370;-64
2021/09/10 07:09:07;;;;;;;14.90;11.38;;;;;;;20.98;75.45;98549.59;4992852;28;102823;-64
2021/09/10 07:11:35;;;;;;;12.27;10.18;;;;;;;21.19;73.97;98551.66;5004351;28;102615;-68
2021/09/10 07:14:05;;;;;;;12.88;9.60;;;;;;;21.31;74.09;98548.34;4992174;28;103554;-69
2021/09/10 07:16:33;;;;;;;11.40;10.23;;;;;;;21.56;73.86;98540.88;4991128;28;103244;-70
2021/09/10 07:19:01;;;;;;;12.68;10.73;;;;;;;21.53;73.84;98551.16;4997992;28;102976;-70
2021/09/10 07:21:29;;;;;;;10.98;10.00;;;;;;;21.67;72.99;98544.97;4999188;28;103854;-70
2021/09/10 07:23:58;;;;;;;11.40;9.38;;;;;;;21.88;72.98;98543.25;4994590;28;103291;-69
2021/09/10 07:26:29;;;;;;;11.73;9.35;;;;;;;22.16;72.82;98547.94;4975294;28;103437;-70
2021/09/10 07:28:57;;;;;;;10.00;9.10;;;;;;;22.53;70.19;98545.09;4992776;28;102599;-69
2021/09/10 07:31:25;;;;;;;12.25;10.02;;;;;;;22.68;69.51;98550.47;4980395;28;102815;-70
2021/09/10 07:33:53;;;;;;;9.82;8.85;;;;;;;22.92;69.07;98558.16;4977365;28;104230;-69
2021/09/10 07:36:22;;;;;;;11.02;9.98;;;;;;;23.17;67.40;98561.28;4983746;28;102663;-69
2021/09/10 07:38:50;;;;;;;11.25;10.13;;;;;;;23.02;67.50;98553.28;4998761;28;103066;-69
2021/09/10 07:41:18;;;;;;;12.07;9.50;;;;;;;23.35;66.96;98557.13;4990995;28;104338;-70
2021/09/10 07:43:48;;;;;;;9.48;8.52;;;;;;;23.38;66.27;98558.63;4984930;28;104221;-64
2021/09/10 07:46:16;;;;;;;11.93;9.73;;;;;;;22.95;67.26;98560.47;4975944;28;103231;-64
2021/09/10 07:48:44;;;;;;;12.95;10.63;;;;;;;23.06;67.69;98566.19;4955954;28;102765;-64
2021/09/10 07:51:12;;;;;;;11.93;10.35;;;;;;;23.21;67.84;98555.34;4971470;28;103031;-64
2021/09/10 07:53:41;;;;;;;13.48;10.45;;;;;;;23.57;67.13;98563.31;4966412;28;104245;-69
2021/09/10 07:56:09;;;;;;;12.23;10.55;;;;;;;22.59;68.83;98565.03;4993481;28;103233;-69
2021/09/10 07:58:37;;;;;;;8.88;8.00;;;;;;;23.08;68.76;98566.81;4993816;28;103186;-70
2021/09/10 08:01:06;;;;;;;10.05;9.07;;;;;;;22.63;69.38;98571.69;4983863;28;102685;-69
2021/09/10 08:03:36;;;;;;;9.27;8.38;;;;;;;24.37;64.47;98569.00;4989870;28;103080;-69
2021/09/10 08:06:05;;;;;;;10.40;9.13;;;;;;;25.01;63.20;98571.31;4986141;28;103270;-69
2021/09/10 08:08:33;;;;;;;11.02;8.77;;;;;;;24.69;62.30;98573.69;4991264;28;102710;-64
2021/09/10 08:11:01;;;;;;;11.15;9.13;;;;;;;25.44;60.01;98575.28;4987230;28;102768;-70
2021/09/10 08:13:30;;;;;;;8.52;7.70;;;;;;;25.76;59.45;98571.75;4986671;28;103308;-69
2021/09/10 08:15:59;;;;;;;9.13;8.02;;;;;;;26.25;60.51;98575.81;4975174;28;103254;-69
2021/09/10 08:18:29;;;;;;;7.88;7.07;;;;;;;26.80;54.09;98574.38;4987280;28;102649;-70
2021/09/10 08:21:02;;;;;;;8.88;6.90;;;;;;;27.32;54.53;98578.59;4994137;28;103779;-69
2021/09/10 08:23:30;;;;;;;7.47;6.63;;;;;;;27.81;52.31;98573.22;4994146;28;103210;-69
2021/09/10 08:25:59;;;;;;;7.97;6.50;;;;;;;27.78;51.93;98579.09;4993422;28;103369;-70
2021/09/10 08:28:27;;;;;;;6.60;6.00;;;;;;;27.49;52.97;98579.75;4995808;28;102623;-71
2021/09/10 08:30:56;;;;;;;7.90;6.72;;;;;;;27.96;52.08;98586.41;4991694;28;102757;-70
2021/09/10 08:33:25;;;;;;;7.82;6.60;;;;;;;27.69;51.90;98585.00;4991913;28;104467;-64
2021/09/10 08:35:54;;;;;;;7.65;6.28;;;;;;;27.77;51.58;98580.13;4977350;28;103246;-70
2021/09/10 08:38:23;;;;;;;6.82;6.25;;;;;;;27.73;53.08;98581.66;4992196;28;102637;-70
2021/09/10 08:40:56;;;;;;;7.18;6.22;;;;;;;26.95;53.86;98583.84;4971018;28;104024;-70
2021/09/10 08:43:25;;;;;;;9.90;7.22;;;;;;;26.66;54.02;98584.44;4966753;28;103885;-65
2021/09/10 08:45:57;;;;;;;8.02;6.22;;;;;;;26.53;55.02;98587.16;4991839;28;103201;-65
2021/09/10 08:48:27;;;;;;;7.43;6.30;;;;;;;25.94;54.46;98587.31;4987353;28;102578;-64
2021/09/10 08:50:58;;;;;;;6.68;5.93;;;;;;;26.11;54.52;98585.00;4992651;28;102755;-64
2021/09/10 08:53:26;;;;;;;6.53;5.80;;;;;;;25.13;53.36;98602.06;4990374;28;103962;-64
2021/09/10 08:55:55;;;;;;;5.85;5.30;;;;;;;25.52;54.40;98596.72;4990246;28;103210;-64
2021/09/10 08:58:23;;;;;;;5.38;4.93;;;;;;;25.70;53.45;98591.53;4977210;28;102802;-70
2021/09/10 09:00:51;;;;;;;5.80;5.20;;;;;;;26.17;53.69;98587.72;4985891;28;102729;-70
2021/09/10 09:03:20;;;;;;;5.00;4.60;;;;;;;26.26;53.21;98591.88;4988593;28;103251;-71
2021/09/10 09:05:52;;;;;;;5.30;4.90;;;;;;;26.86;51.57;98593.28;4990675;28;103273;-70
2021/09/10 09:08:22;;;;;;;5.32;4.90;;;;;;;27.56;50.23;98596.81;4993302;28;102702;-70
2021/09/10 09:11:02;;;;;;;5.30;4.90;;;;;;;27.60;49.49;98596.16;4993789;28;102717;-70
2021/09/10 09:13:31;;;;;;;5.88;5.20;;;;;;;27.98;48.91;98598.72;4990969;28;103380;-65
2021/09/10 09:16:22;;;;;;;4.68;4.32;;;;;;;27.53;48.94;98592.66;4988022;28;103242;-65
2021/09/10 09:18:52;;;;;;;5.97;5.47;;;;;;;26.90;50.47;98590.97;4987655;28;102671;-69
2021/09/10 09:21:23;;;;;;;6.70;5.85;;;;;;;27.57;50.11;98593.03;4993558;28;103883;-71
2021/09/10 09:23:56;;;;;;;5.75;5.25;;;;;;;27.99;49.36;98592.22;4990456;28;103295;-65
2021/09/10 09:26:27;;;;;;;6.15;5.63;;;;;;;28.40;48.65;98594.31;4990209;28;103262;-66
2021/09/10 09:29:05;;;;;;;5.68;5.18;;;;;;;28.64;47.85;98589.88;4985223;28;102732;-65
2021/09/10 09:31:34;;;;;;;5.22;4.70;;;;;;;28.41;48.27;98590.53;4986372;28;102788;-65
2021/09/10 09:34:03;;;;;;;5.97;5.43;;;;;;;27.78;48.94;98586.38;4986129;28;103311;-65
2021/09/10 09:36:31;;;;;;;6.72;6.10;;;;;;;27.64;50.20;98593.81;4987791;28;103303;-69
2021/09/10 09:39:10;;;;;;;7.70;5.90;;;;;;;27.62;50.46;98590.50;4984777;28;102742;-65
2021/09/10 09:41:42;;;;;;;6.45;5.95;;;;;;;27.15;51.16;98594.56;4987840;28;102695;-65
2021/09/10 09:44:13;;;;;;;5.75;5.22;;;;;;;27.66;50.18;98597.13;4978829;28;104216;-66
2021/09/10 09:46:44;;;;;;;6.55;5.95;;;;;;;27.39;51.16;98592.97;4987957;28;103351;-65
2021/09/10 09:49:14;;;;;;;7.45;6.15;;;;;;;26.80;51.44;98596.88;4987108;28;103747;-65
2021/09/10 09:51:57;;;;;;;7.93;5.78;;;;;;;26.95;52.26;98592.00;4996233;28;104219;-65
2021/09/10 09:54:32;;;;;;;8.23;5.97;;;;;;;27.60;50.30;98592.59;4991496;28;103265;-65
2021/09/10 09:57:00;;;;;;;7.25;6.55;;;;;;;27.58;51.07;98600.13;4973882;28;104238;-65
2021/09/10 09:59:31;;;;;;;7.72;6.35;;;;;;;27.12;51.69;98602.34;4986037;28;102692;-65
2021/09/10 10:02:00;;;;;;;6.47;5.88;;;;;;;26.81;51.74;98603.94;4987229;28;102624;-65
2021/09/10 10:04:29;;;;;;;5.95;5.45;;;;;;;27.12;51.23;98597.72;4989448;28;103369;-65
2021/09/10 10:07:01;;;;;;;7.03;6.32;;;;;;;27.29;50.63;98598.03;4978811;28;103401;-65
2021/09/10 10:09:33;;;;;;;6.20;5.60;;;;;;;28.16;48.55;98596.03;4969901;28;102817;-71
2021/09/10 10:12:03;;;;;;;6.05;5.43;;;;;;;28.73;48.63;98593.94;4995694;28;102616;-71
2021/09/10 10:14:33;;;;;;;6.05;5.55;;;;;;;29.16;47.32;98600.03;4994389;28;104063;-71
2021/09/10 10:17:02;;;;;;;7.70;6.10;;;;;;;28.36;47.41;98598.53;4992606;28;104341;-72
2021/09/10 10:19:43;;;;;;;5.68;5.20;;;;;;;28.91;47.01;98591.19;4996416;28;102863;-71
2021/09/10 10:22:14;;;;;;;6.50;6.00;;;;;;;28.31;47.85;98592.13;4996159;28;102648;-71
2021/09/10 10:24:50;;;;;;;6.65;6.05;;;;;;;27.99;48.09;98594.94;4985350;28;103310;-71
2021/09/10 10:27:43;;;;;;;6.10;5.53;;;;;;;27.74;48.38;98594.13;4992747;28;103263;-72
2021/09/10 10:30:49;;;;;;;5.97;5.47;;;;;;;28.21;49.58;98589.97;4995003;28;103969;-73
2021/09/10 10:33:29;;;;;;;6.05;5.55;;;;;;;28.97;47.33;98594.88;4994054;28;103023;-72
2021/09/10 10:35:57;;;;;;;7.13;6.15;;;;;;;28.73;46.52;98589.34;4994713;28;103204;-72
2021/09/10 10:38:25;;;;;;;6.63;6.03;;;;;;;28.48;48.05;98590.47;4992421;28;103240;-72
2021/09/10 10:40:55;;;;;;;6.32;5.82;;;;;;;28.62;47.54;98592.78;4993274;28;102641;-74
2021/09/10 10:43:28;;;;;;;6.22;5.63;;;;;;;28.62;47.46;98586.53;4976877;28;102896;-71
2021/09/10 10:46:07;;;;;;;6.82;6.22;;;;;;;28.12;47.60;98585.88;4997852;28;103263;-71
2021/09/10 10:48:52;;;;;;;7.80;5.95;;;;;;;28.72;47.86;98586.84;4968519;28;103353;-67
2021/09/10 10:51:50;;;;;;;6.07;5.57;;;;;;;28.70;46.24;98572.66;4989156;28;103027;-66
2021/09/10 10:54:26;;;;;;;6.35;5.93;;;;;;;28.63;47.18;98575.44;4984511;28;102726;-65
2021/09/10 10:56:58;;;;;;;5.90;5.45;;;;;;;29.05;47.11;98579.06;4986792;28;103311;-66
2021/09/10 10:59:38;;;;;;;6.20;5.57;;;;;;;29.84;44.61;98559.59;4988418;28;103176;-66
2021/09/10 11:31:36;;;;;;;6.57;5.97;;;;;;;28.77;46.73;98557.91;4980279;22;103524;-66
2021/09/10 11:34:04;;;;;;;6.00;5.50;;;;;;;28.97;46.78;98552.19;4993650;28;102707;-65
2021/09/10 11:36:33;;;;;;;6.00;5.50;;;;;;;28.92;47.18;98556.66;4984639;28;102839;-68
2021/09/10 11:39:06;;;;;;;6.60;6.00;;;;;;;28.77;47.15;98562.53;4988776;28;103667;-66
2021/09/10 11:41:36;;;;;;;6.25;5.72;;;;;;;28.91;45.83;98547.69;4997562;28;103012;-72
2021/09/10 11:44:10;;;;;;;6.50;6.00;;;;;;;29.34;45.14;98544.72;4991354;28;102745;-73
2021/09/10 11:46:42;;;;;;;6.10;5.60;;;;;;;29.82;44.66;98547.28;4975985;28;102776;-73
2021/09/10 11:49:12;;;;;;;5.82;5.43;;;;;;;29.99;44.32;98539.22;4992760;28;104144;-73
2021/09/10 11:51:43;;;;;;;6.38;5.88;;;;;;;30.05;44.00;98539.09;4989863;28;103192;-73
2021/09/10 11:54:14;;;;;;;6.63;6.03;;;;;;;29.07;45.97;98538.88;4993920;28;102664;-73
2021/09/10 11:56:45;;;;;;;6.25;5.70;;;;;;;28.67;46.97;98545.94;4991255;28;104063;-74
2021/09/10 11:59:18;;;;;;;6.32;5.80;;;;;;;29.49;45.97;98534.22;4974896;28;103175;-74
2021/09/10 12:01:49;;;;;;;6.20;5.60;;;;;;;29.22;46.84;98539.28;4988939;28;103294;-72
2021/09/10 12:04:41;;;;;;;6.80;6.20;;;;;;;28.97;46.47;98541.31;4988075;28;103036;-72
2021/09/10 12:07:09;;;;;;;7.22;6.50;;;;;;;28.47;46.95;98531.75;4981931;28;102805;-67
2021/09/10 12:09:39;;;;;;;6.88;6.30;;;;;;;28.94;46.69;98530.88;4975502;28;103639;-67
2021/09/10 12:12:16;;;;;;;5.88;5.38;;;;;;;29.62;46.11;98527.72;4986058;28;103303;-64